sensor_id;sensor_type;location;lat;lon;timestamp;P1;P2;P0
12542;PMS3003;6337;49.556;25.594;2022-09-21T00:02:10;23.70;15.20;
12542;PMS3003;6337;49.556;25.594;2022-09-21T00:04:37;23.70;15.03;
12542;PMS3003;6337;49.556;25.594;2022-09-21T00:07:05;25.57;16.30;
12542;PMS3003;6337;49.556;25.594;2022-09-21T00:09:32;26.63;16.30;
12542;PMS3003;6337;49.556;25.594;2022-09-21T00:11:59;22.63;15.90;
12542;PMS3003;6337;49.556;25.594;2022-09-21T00:14:27;24.50;14.50;
12542;PMS3003;6337;49.556;25.594;2022-09-21T00:16:55;28.13;14.77;
12542;PMS3003;6337;49.556;25.594;2022-09-21T00:19:24;22.60;15.43;
12542;PMS3003;6337;49.556;25.594;2022-09-21T00:21:52;26.40;16.07;
12542;PMS3003;6337;49.556;25.594;2022-09-21T00:24:21;35.60;16.60;
12542;PMS3003;6337;49.556;25.594;2022-09-21T00:26:48;25.37;15.90;
12542;PMS3003;6337;49.556;25.594;2022-09-21T00:29:15;22.13;15.27;
12542;PMS3003;6337;49.556;25.594;2022-09-21T00:31:43;20.50;14.33;
12542;PMS3003;6337;49.556;25.594;2022-09-21T00:34:10;20.03;13.23;
12542;PMS3003;6337;49.556;25.594;2022-09-21T00:36:39;18.97;12.30;
12542;PMS3003;6337;49.556;25.594;2022-09-21T00:39:06;18.33;12.40;
12542;PMS3003;6337;49.556;25.594;2022-09-21T00:41:35;16.90;11.53;
12542;PMS3003;6337;49.556;25.594;2022-09-21T00:44:18;19.77;13.00;
12542;PMS3003;6337;49.556;25.594;2022-09-21T00:46:50;16.93;11.53;
12542;PMS3003;6337;49.556;25.594;2022-09-21T00:49:19;23.27;13.47;
12542;PMS3003;6337;49.556;25.594;2022-09-21T00:51:48;17.10;11.80;
12542;PMS3003;6337;49.556;25.594;2022-09-21T00:54:19;18.10;12.67;
12542;PMS3003;6337;49.556;25.594;2022-09-21T00:56:48;15.60;11.17;
12542;PMS3003;6337;49.556;25.594;2022-09-21T00:59:15;13.17;10.17;
12542;PMS3003;6337;49.556;25.594;2022-09-21T01:01:44;14.53;10.20;
12542;PMS3003;6337;49.556;25.594;2022-09-21T01:04:12;17.37;12.33;
12542;PMS3003;6337;49.556;25.594;2022-09-21T01:06:43;26.47;14.70;
12542;PMS3003;6337;49.556;25.594;2022-09-21T01:09:13;16.53;11.17;
12542;PMS3003;6337;49.556;25.594;2022-09-21T01:11:42;17.20;11.40;
12542;PMS3003;6337;49.556;25.594;2022-09-21T01:14:23;15.43;10.00;
12542;PMS3003;6337;49.556;25.594;2022-09-21T01:17:00;14.87;10.13;
12542;PMS3003;6337;49.556;25.594;2022-09-21T01:19:46;14.77;11.47;
12542;PMS3003;6337;49.556;25.594;2022-09-21T01:22:25;16.00;9.93;
12542;PMS3003;6337;49.556;25.594;2022-09-21T01:25:00;15.40;10.20;
12542;PMS3003;6337;49.556;25.594;2022-09-21T01:27:37;19.50;11.83;
12542;PMS3003;6337;49.556;25.594;2022-09-21T01:30:15;15.13;11.53;
12542;PMS3003;6337;49.556;25.594;2022-09-21T01:32:44;15.23;11.17;
12542;PMS3003;6337;49.556;25.594;2022-09-21T01:35:15;16.73;11.00;
12542;PMS3003;6337;49.556;25.594;2022-09-21T01:37:46;19.27;12.40;
12542;PMS3003;6337;49.556;25.594;2022-09-21T01:40:16;23.50;13.97;
12542;PMS3003;6337;49.556;25.594;2022-09-21T01:42:47;17.80;10.40;
12542;PMS3003;6337;49.556;25.594;2022-09-21T01:45:18;17.27;11.63;
12542;PMS3003;6337;49.556;25.594;2022-09-21T01:47:47;17.97;11.13;
12542;PMS3003;6337;49.556;25.594;2022-09-21T01:50:16;18.10;11.50;
12542;PMS3003;6337;49.556;25.594;2022-09-21T01:52:45;21.80;12.63;
12542;PMS3003;6337;49.556;25.594;2022-09-21T01:55:15;16.70;11.53;
12542;PMS3003;6337;49.556;25.594;2022-09-21T01:57:46;20.20;12.43;
12542;PMS3003;6337;49.556;25.594;2022-09-21T02:00:19;16.67;11.37;
12542;PMS3003;6337;49.556;25.594;2022-09-21T02:02:47;16.90;11.30;
12542;PMS3003;6337;49.556;25.594;2022-09-21T02:05:17;17.57;10.00;
12542;PMS3003;6337;49.556;25.594;2022-09-21T02:07:46;19.97;12.90;
12542;PMS3003;6337;49.556;25.594;2022-09-21T02:10:15;21.63;11.80;
12542;PMS3003;6337;49.556;25.594;2022-09-21T02:12:44;15.37;10.90;
12542;PMS3003;6337;49.556;25.594;2022-09-21T02:15:12;14.47;10.30;
12542;PMS3003;6337;49.556;25.594;2022-09-21T02:17:54;16.13;9.70;
12542;PMS3003;6337;49.556;25.594;2022-09-21T02:20:29;15.90;11.20;
12542;PMS3003;6337;49.556;25.594;2022-09-21T02:23:00;15.47;10.60;
12542;PMS3003;6337;49.556;25.594;2022-09-21T02:25:34;13.40;10.80;
12542;PMS3003;6337;49.556;25.594;2022-09-21T02:28:06;14.23;9.53;
12542;PMS3003;6337;49.556;25.594;2022-09-21T02:30:36;13.30;9.80;
12542;PMS3003;6337;49.556;25.594;2022-09-21T02:33:08;22.33;11.47;
12542;PMS3003;6337;49.556;25.594;2022-09-21T02:35:40;15.77;11.17;
12542;PMS3003;6337;49.556;25.594;2022-09-21T02:38:14;12.63;10.43;
12542;PMS3003;6337;49.556;25.594;2022-09-21T02:40:47;16.47;10.33;
12542;PMS3003;6337;49.556;25.594;2022-09-21T02:43:20;14.77;10.47;
12542;PMS3003;6337;49.556;25.594;2022-09-21T02:45:53;12.57;10.00;
12542;PMS3003;6337;49.556;25.594;2022-09-21T02:48:25;10.70;8.77;
12542;PMS3003;6337;49.556;25.594;2022-09-21T02:50:55;11.30;8.87;
12542;PMS3003;6337;49.556;25.594;2022-09-21T02:53:26;13.87;9.73;
12542;PMS3003;6337;49.556;25.594;2022-09-21T02:55:56;13.90;8.90;
12542;PMS3003;6337;49.556;25.594;2022-09-21T02:58:27;12.03;8.97;
12542;PMS3003;6337;49.556;25.594;2022-09-21T03:00:55;13.20;9.57;
12542;PMS3003;6337;49.556;25.594;2022-09-21T03:03:24;9.40;8.40;
12542;PMS3003;6337;49.556;25.594;2022-09-21T03:05:52;9.97;8.70;
12542;PMS3003;6337;49.556;25.594;2022-09-21T03:08:20;9.00;6.93;
12542;PMS3003;6337;49.556;25.594;2022-09-21T03:10:47;10.73;7.90;
12542;PMS3003;6337;49.556;25.594;2022-09-21T03:13:15;15.50;8.30;
12542;PMS3003;6337;49.556;25.594;2022-09-21T03:15:43;8.63;7.30;
12542;PMS3003;6337;49.556;25.594;2022-09-21T03:18:11;9.90;8.10;
12542;PMS3003;6337;49.556;25.594;2022-09-21T03:20:42;10.40;6.93;
12542;PMS3003;6337;49.556;25.594;2022-09-21T03:23:10;10.13;8.70;
12542;PMS3003;6337;49.556;25.594;2022-09-21T03:25:38;9.90;7.50;
12542;PMS3003;6337;49.556;25.594;2022-09-21T03:28:05;9.33;6.53;
12542;PMS3003;6337;49.556;25.594;2022-09-21T03:30:32;18.33;7.57;
12542;PMS3003;6337;49.556;25.594;2022-09-21T03:32:59;9.73;7.57;
12542;PMS3003;6337;49.556;25.594;2022-09-21T03:35:29;7.60;5.93;
12542;PMS3003;6337;49.556;25.594;2022-09-21T03:37:59;11.80;6.83;
12542;PMS3003;6337;49.556;25.594;2022-09-21T03:40:27;9.47;7.80;
12542;PMS3003;6337;49.556;25.594;2022-09-21T03:42:55;12.23;8.20;
12542;PMS3003;6337;49.556;25.594;2022-09-21T03:45:22;10.10;7.13;
12542;PMS3003;6337;49.556;25.594;2022-09-21T03:47:49;14.43;9.67;
12542;PMS3003;6337;49.556;25.594;2022-09-21T03:50:16;14.40;8.47;
12542;PMS3003;6337;49.556;25.594;2022-09-21T03:52:43;15.07;8.53;
12542;PMS3003;6337;49.556;25.594;2022-09-21T03:55:12;14.40;10.03;
12542;PMS3003;6337;49.556;25.594;2022-09-21T03:57:39;11.00;7.60;
12542;PMS3003;6337;49.556;25.594;2022-09-21T04:00:07;13.13;8.53;
12542;PMS3003;6337;49.556;25.594;2022-09-21T04:02:36;14.67;10.10;
12542;PMS3003;6337;49.556;25.594;2022-09-21T04:05:04;11.23;7.87;
12542;PMS3003;6337;49.556;25.594;2022-09-21T04:07:32;12.50;8.77;
12542;PMS3003;6337;49.556;25.594;2022-09-21T04:10:00;13.00;8.53;
12542;PMS3003;6337;49.556;25.594;2022-09-21T04:12:29;15.77;9.67;
12542;PMS3003;6337;49.556;25.594;2022-09-21T04:14:56;15.67;10.33;
12542;PMS3003;6337;49.556;25.594;2022-09-21T04:17:24;16.80;9.73;
12542;PMS3003;6337;49.556;25.594;2022-09-21T04:19:51;13.00;9.63;
12542;PMS3003;6337;49.556;25.594;2022-09-21T04:22:18;13.53;8.87;
12542;PMS3003;6337;49.556;25.594;2022-09-21T04:24:45;11.77;9.10;
12542;PMS3003;6337;49.556;25.594;2022-09-21T04:27:12;13.80;9.73;
12542;PMS3003;6337;49.556;25.594;2022-09-21T04:29:41;10.80;8.93;
12542;PMS3003;6337;49.556;25.594;2022-09-21T04:32:08;12.60;9.17;
12542;PMS3003;6337;49.556;25.594;2022-09-21T04:34:36;14.33;10.20;
12542;PMS3003;6337;49.556;25.594;2022-09-21T04:37:03;10.87;8.97;
12542;PMS3003;6337;49.556;25.594;2022-09-21T04:39:32;12.73;10.50;
12542;PMS3003;6337;49.556;25.594;2022-09-21T04:41:59;10.10;7.77;
12542;PMS3003;6337;49.556;25.594;2022-09-21T04:44:26;12.57;9.00;
12542;PMS3003;6337;49.556;25.594;2022-09-21T04:46:55;12.70;8.63;
12542;PMS3003;6337;49.556;25.594;2022-09-21T04:49:23;13.00;9.40;
12542;PMS3003;6337;49.556;25.594;2022-09-21T04:51:50;10.70;7.70;
12542;PMS3003;6337;49.556;25.594;2022-09-21T04:54:17;11.93;9.03;
12542;PMS3003;6337;49.556;25.594;2022-09-21T04:56:45;10.90;9.13;
12542;PMS3003;6337;49.556;25.594;2022-09-21T04:59:12;13.33;10.33;
12542;PMS3003;6337;49.556;25.594;2022-09-21T05:01:39;12.10;8.67;
12542;PMS3003;6337;49.556;25.594;2022-09-21T05:04:08;13.10;8.40;
12542;PMS3003;6337;49.556;25.594;2022-09-21T05:06:35;16.93;9.93;
12542;PMS3003;6337;49.556;25.594;2022-09-21T05:09:02;12.67;10.00;
12542;PMS3003;6337;49.556;25.594;2022-09-21T05:11:47;11.63;9.27;
12542;PMS3003;6337;49.556;25.594;2022-09-21T05:14:14;13.77;9.10;
12542;PMS3003;6337;49.556;25.594;2022-09-21T05:16:41;13.70;9.47;
12542;PMS3003;6337;49.556;25.594;2022-09-21T05:19:10;15.73;9.73;
12542;PMS3003;6337;49.556;25.594;2022-09-21T05:21:37;14.27;10.10;
12542;PMS3003;6337;49.556;25.594;2022-09-21T05:24:05;13.70;9.97;
12542;PMS3003;6337;49.556;25.594;2022-09-21T05:26:32;15.67;10.50;
12542;PMS3003;6337;49.556;25.594;2022-09-21T05:29:01;14.90;10.07;
12542;PMS3003;6337;49.556;25.594;2022-09-21T05:31:30;14.30;10.30;
12542;PMS3003;6337;49.556;25.594;2022-09-21T05:34:05;16.37;11.10;
12542;PMS3003;6337;49.556;25.594;2022-09-21T05:36:59;15.23;11.03;
12542;PMS3003;6337;49.556;25.594;2022-09-21T05:39:28;20.70;11.77;
12542;PMS3003;6337;49.556;25.594;2022-09-21T05:41:56;20.57;12.03;
12542;PMS3003;6337;49.556;25.594;2022-09-21T05:44:24;14.40;11.97;
12542;PMS3003;6337;49.556;25.594;2022-09-21T05:46:53;21.90;13.80;
12542;PMS3003;6337;49.556;25.594;2022-09-21T05:49:27;23.17;14.30;
12542;PMS3003;6337;49.556;25.594;2022-09-21T05:52:11;22.33;13.83;
12542;PMS3003;6337;49.556;25.594;2022-09-21T05:54:45;32.80;13.13;
12542;PMS3003;6337;49.556;25.594;2022-09-21T05:57:19;16.87;11.07;
12542;PMS3003;6337;49.556;25.594;2022-09-21T05:59:56;22.03;12.13;
12542;PMS3003;6337;49.556;25.594;2022-09-21T06:02:39;17.30;12.10;
12542;PMS3003;6337;49.556;25.594;2022-09-21T06:05:30;15.77;11.07;
12542;PMS3003;6337;49.556;25.594;2022-09-21T06:07:59;13.53;9.87;
12542;PMS3003;6337;49.556;25.594;2022-09-21T06:10:27;16.07;10.57;
12542;PMS3003;6337;49.556;25.594;2022-09-21T06:12:59;10.57;8.80;
12542;PMS3003;6337;49.556;25.594;2022-09-21T06:15:26;14.63;10.90;
12542;PMS3003;6337;49.556;25.594;2022-09-21T06:17:53;10.93;9.40;
12542;PMS3003;6337;49.556;25.594;2022-09-21T06:20:20;14.90;10.77;
12542;PMS3003;6337;49.556;25.594;2022-09-21T06:22:49;13.57;8.90;
12542;PMS3003;6337;49.556;25.594;2022-09-21T06:25:19;14.50;8.30;
12542;PMS3003;6337;49.556;25.594;2022-09-21T06:27:46;10.47;9.03;
12542;PMS3003;6337;49.556;25.594;2022-09-21T06:30:13;11.80;8.57;
12542;PMS3003;6337;49.556;25.594;2022-09-21T06:32:40;12.70;9.60;
12542;PMS3003;6337;49.556;25.594;2022-09-21T06:35:07;14.50;8.47;
12542;PMS3003;6337;49.556;25.594;2022-09-21T06:37:35;14.77;9.50;
12542;PMS3003;6337;49.556;25.594;2022-09-21T06:40:04;13.13;7.70;
12542;PMS3003;6337;49.556;25.594;2022-09-21T06:42:35;12.70;9.10;
12542;PMS3003;6337;49.556;25.594;2022-09-21T06:45:02;10.10;8.03;
12542;PMS3003;6337;49.556;25.594;2022-09-21T06:47:32;9.23;7.33;
12542;PMS3003;6337;49.556;25.594;2022-09-21T06:49:59;8.30;5.87;
12542;PMS3003;6337;49.556;25.594;2022-09-21T06:52:27;11.30;6.67;
12542;PMS3003;6337;49.556;25.594;2022-09-21T06:54:54;5.23;4.73;
12542;PMS3003;6337;49.556;25.594;2022-09-21T06:57:21;5.87;4.33;
12542;PMS3003;6337;49.556;25.594;2022-09-21T06:59:50;7.83;6.23;
12542;PMS3003;6337;49.556;25.594;2022-09-21T07:02:18;6.77;5.30;
12542;PMS3003;6337;49.556;25.594;2022-09-21T07:04:45;7.83;6.60;
12542;PMS3003;6337;49.556;25.594;2022-09-21T07:07:13;16.67;4.50;
12542;PMS3003;6337;49.556;25.594;2022-09-21T07:09:40;9.43;5.57;
12542;PMS3003;6337;49.556;25.594;2022-09-21T07:12:07;8.60;4.90;
12542;PMS3003;6337;49.556;25.594;2022-09-21T07:14:34;6.20;5.27;
12542;PMS3003;6337;49.556;25.594;2022-09-21T07:17:02;3.50;3.20;
12542;PMS3003;6337;49.556;25.594;2022-09-21T07:19:30;6.10;3.20;
12542;PMS3003;6337;49.556;25.594;2022-09-21T07:21:58;2.43;2.23;
12542;PMS3003;6337;49.556;25.594;2022-09-21T07:24:26;2.70;2.50;
12542;PMS3003;6337;49.556;25.594;2022-09-21T07:26:53;7.43;2.27;
12542;PMS3003;6337;49.556;25.594;2022-09-21T07:29:20;2.83;2.63;
12542;PMS3003;6337;49.556;25.594;2022-09-21T07:31:48;5.23;1.97;
12542;PMS3003;6337;49.556;25.594;2022-09-21T07:34:17;1.97;1.87;
12542;PMS3003;6337;49.556;25.594;2022-09-21T07:36:44;3.23;2.17;
12542;PMS3003;6337;49.556;25.594;2022-09-21T07:39:11;2.07;1.87;
12542;PMS3003;6337;49.556;25.594;2022-09-21T07:41:39;2.83;2.20;
12542;PMS3003;6337;49.556;25.594;2022-09-21T07:44:07;1.87;1.77;
12542;PMS3003;6337;49.556;25.594;2022-09-21T07:46:34;1.97;1.87;
12542;PMS3003;6337;49.556;25.594;2022-09-21T07:49:01;2.67;2.50;
12542;PMS3003;6337;49.556;25.594;2022-09-21T07:51:31;3.00;2.80;
12542;PMS3003;6337;49.556;25.594;2022-09-21T07:53:58;2.50;2.40;
12542;PMS3003;6337;49.556;25.594;2022-09-21T07:56:26;3.80;2.10;
12542;PMS3003;6337;49.556;25.594;2022-09-21T07:58:53;2.30;2.10;
12542;PMS3003;6337;49.556;25.594;2022-09-21T08:01:31;3.60;3.33;
12542;PMS3003;6337;49.556;25.594;2022-09-21T08:03:59;3.37;2.80;
12542;PMS3003;6337;49.556;25.594;2022-09-21T08:06:29;3.30;2.67;
12542;PMS3003;6337;49.556;25.594;2022-09-21T08:09:01;4.50;3.70;
12542;PMS3003;6337;49.556;25.594;2022-09-21T08:11:29;3.30;3.10;
12542;PMS3003;6337;49.556;25.594;2022-09-21T08:13:57;3.87;3.40;
12542;PMS3003;6337;49.556;25.594;2022-09-21T08:16:28;4.30;3.80;
12542;PMS3003;6337;49.556;25.594;2022-09-21T08:18:58;2.73;2.63;
12542;PMS3003;6337;49.556;25.594;2022-09-21T08:21:26;4.00;3.70;
12542;PMS3003;6337;49.556;25.594;2022-09-21T08:23:55;3.70;3.40;
12542;PMS3003;6337;49.556;25.594;2022-09-21T08:26:23;3.30;3.10;
12542;PMS3003;6337;49.556;25.594;2022-09-21T08:28:52;3.57;3.27;
12542;PMS3003;6337;49.556;25.594;2022-09-21T08:31:23;4.40;4.10;
12542;PMS3003;6337;49.556;25.594;2022-09-21T08:33:51;6.03;5.00;
12542;PMS3003;6337;49.556;25.594;2022-09-21T08:36:20;6.40;5.70;
12542;PMS3003;6337;49.556;25.594;2022-09-21T08:38:47;13.53;5.53;
12542;PMS3003;6337;49.556;25.594;2022-09-21T08:41:17;7.73;6.93;
12542;PMS3003;6337;49.556;25.594;2022-09-21T08:43:48;9.73;7.10;
12542;PMS3003;6337;49.556;25.594;2022-09-21T08:46:19;9.80;8.13;
12542;PMS3003;6337;49.556;25.594;2022-09-21T08:48:49;13.70;8.53;
12542;PMS3003;6337;49.556;25.594;2022-09-21T08:51:20;12.00;9.00;
12542;PMS3003;6337;49.556;25.594;2022-09-21T08:53:49;12.00;9.53;
12542;PMS3003;6337;49.556;25.594;2022-09-21T08:56:19;11.97;8.80;
12542;PMS3003;6337;49.556;25.594;2022-09-21T08:58:48;9.83;7.53;
12542;PMS3003;6337;49.556;25.594;2022-09-21T09:01:30;8.30;7.50;
12542;PMS3003;6337;49.556;25.594;2022-09-21T09:06:54;6.57;5.20;
12542;PMS3003;6337;49.556;25.594;2022-09-21T09:09:39;8.20;6.73;
12542;PMS3003;6337;49.556;25.594;2022-09-21T09:12:19;7.10;6.40;
12542;PMS3003;6337;49.556;25.594;2022-09-21T09:15:03;6.37;5.77;
12542;PMS3003;6337;49.556;25.594;2022-09-21T09:17:38;9.17;6.77;
12542;PMS3003;6337;49.556;25.594;2022-09-21T09:20:12;5.93;5.37;
12542;PMS3003;6337;49.556;25.594;2022-09-21T09:22:44;9.10;6.50;
12542;PMS3003;6337;49.556;25.594;2022-09-21T09:25:15;7.73;6.30;
12542;PMS3003;6337;49.556;25.594;2022-09-21T09:27:45;9.60;7.50;
12542;PMS3003;6337;49.556;25.594;2022-09-21T09:30:14;5.60;5.10;
12542;PMS3003;6337;49.556;25.594;2022-09-21T09:32:45;6.30;5.23;
12542;PMS3003;6337;49.556;25.594;2022-09-21T09:35:15;7.90;5.47;
12542;PMS3003;6337;49.556;25.594;2022-09-21T09:37:46;10.03;5.90;
12542;PMS3003;6337;49.556;25.594;2022-09-21T09:40:14;6.53;5.93;
12542;PMS3003;6337;49.556;25.594;2022-09-21T09:42:52;9.40;5.80;
12542;PMS3003;6337;49.556;25.594;2022-09-21T09:45:31;5.40;3.93;
12542;PMS3003;6337;49.556;25.594;2022-09-21T09:48:07;4.50;3.70;
12542;PMS3003;6337;49.556;25.594;2022-09-21T09:50:36;7.53;5.07;
12542;PMS3003;6337;49.556;25.594;2022-09-21T09:53:05;5.43;4.93;
12542;PMS3003;6337;49.556;25.594;2022-09-21T09:55:37;4.83;4.40;
12542;PMS3003;6337;49.556;25.594;2022-09-21T09:58:15;5.93;5.03;
12542;PMS3003;6337;49.556;25.594;2022-09-21T10:00:43;7.20;4.40;
12542;PMS3003;6337;49.556;25.594;2022-09-21T10:03:14;5.20;4.80;
12542;PMS3003;6337;49.556;25.594;2022-09-21T10:05:43;5.40;3.67;
12542;PMS3003;6337;49.556;25.594;2022-09-21T10:08:30;4.87;4.47;
12542;PMS3003;6337;49.556;25.594;2022-09-21T10:11:06;3.97;3.57;
12542;PMS3003;6337;49.556;25.594;2022-09-21T10:13:35;4.43;4.03;
12542;PMS3003;6337;49.556;25.594;2022-09-21T10:16:04;6.00;4.57;
12542;PMS3003;6337;49.556;25.594;2022-09-21T10:18:34;8.00;5.00;
12542;PMS3003;6337;49.556;25.594;2022-09-21T10:21:04;4.33;3.93;
12542;PMS3003;6337;49.556;25.594;2022-09-21T10:23:32;5.23;4.47;
12542;PMS3003;6337;49.556;25.594;2022-09-21T10:26:01;4.80;4.37;
12542;PMS3003;6337;49.556;25.594;2022-09-21T10:28:30;4.90;3.47;
12542;PMS3003;6337;49.556;25.594;2022-09-21T10:33:51;3.07;2.87;
12542;PMS3003;6337;49.556;25.594;2022-09-21T10:36:27;2.90;2.70;
12542;PMS3003;6337;49.556;25.594;2022-09-21T10:38:58;1.83;1.73;
12542;PMS3003;6337;49.556;25.594;2022-09-21T10:41:51;2.97;2.77;
12542;PMS3003;6337;49.556;25.594;2022-09-21T10:44:21;5.67;2.60;
12542;PMS3003;6337;49.556;25.594;2022-09-21T10:46:51;3.10;2.90;
12542;PMS3003;6337;49.556;25.594;2022-09-21T10:49:20;3.13;2.93;
12542;PMS3003;6337;49.556;25.594;2022-09-21T10:51:49;3.63;2.87;
12542;PMS3003;6337;49.556;25.594;2022-09-21T10:54:20;3.00;2.70;
12542;PMS3003;6337;49.556;25.594;2022-09-21T10:56:55;4.37;2.40;
12542;PMS3003;6337;49.556;25.594;2022-09-21T10:59:25;3.03;2.83;
12542;PMS3003;6337;49.556;25.594;2022-09-21T11:01:56;2.87;2.67;
12542;PMS3003;6337;49.556;25.594;2022-09-21T11:04:37;2.30;2.17;
12542;PMS3003;6337;49.556;25.594;2022-09-21T11:07:11;3.23;2.00;
12542;PMS3003;6337;49.556;25.594;2022-09-21T11:09:44;1.80;1.70;
12542;PMS3003;6337;49.556;25.594;2022-09-21T11:15:19;1.80;1.70;
12542;PMS3003;6337;49.556;25.594;2022-09-21T11:17:59;1.30;1.30;
12542;PMS3003;6337;49.556;25.594;2022-09-21T11:20:34;1.33;1.23;
12542;PMS3003;6337;49.556;25.594;2022-09-21T11:23:12;1.50;1.40;
12542;PMS3003;6337;49.556;25.594;2022-09-21T11:25:48;1.57;1.47;
12542;PMS3003;6337;49.556;25.594;2022-09-21T11:28:21;3.63;1.43;
12542;PMS3003;6337;49.556;25.594;2022-09-21T11:31:01;2.10;0.90;
12542;PMS3003;6337;49.556;25.594;2022-09-21T11:33:48;0.80;0.80;
12542;PMS3003;6337;49.556;25.594;2022-09-21T11:36:27;1.00;0.90;
12542;PMS3003;6337;49.556;25.594;2022-09-21T11:39:01;2.80;1.33;
12542;PMS3003;6337;49.556;25.594;2022-09-21T11:41:41;1.40;1.30;
12542;PMS3003;6337;49.556;25.594;2022-09-21T11:44:22;1.30;1.20;
12542;PMS3003;6337;49.556;25.594;2022-09-21T11:46:59;2.67;1.00;
12542;PMS3003;6337;49.556;25.594;2022-09-21T11:49:42;1.83;1.30;
12542;PMS3003;6337;49.556;25.594;2022-09-21T11:52:26;5.33;1.30;
12542;PMS3003;6337;49.556;25.594;2022-09-21T11:55:09;1.00;1.00;
12542;PMS3003;6337;49.556;25.594;2022-09-21T11:58:03;1.60;1.50;
12542;PMS3003;6337;49.556;25.594;2022-09-21T12:00:35;1.40;1.20;
12542;PMS3003;6337;49.556;25.594;2022-09-21T12:06:12;2.73;1.97;
12542;PMS3003;6337;49.556;25.594;2022-09-21T12:08:55;2.50;2.30;
12542;PMS3003;6337;49.556;25.594;2022-09-21T12:11:35;2.80;2.60;
12542;PMS3003;6337;49.556;25.594;2022-09-21T12:14:12;3.50;3.30;
12542;PMS3003;6337;49.556;25.594;2022-09-21T12:16:48;3.27;2.97;
12542;PMS3003;6337;49.556;25.594;2022-09-21T12:19:21;2.60;2.40;
12542;PMS3003;6337;49.556;25.594;2022-09-21T12:21:54;4.17;3.83;
12542;PMS3003;6337;49.556;25.594;2022-09-21T12:24:26;10.27;3.20;
12542;PMS3003;6337;49.556;25.594;2022-09-21T12:26:57;3.13;2.93;
12542;PMS3003;6337;49.556;25.594;2022-09-21T12:29:27;6.10;2.90;
12542;PMS3003;6337;49.556;25.594;2022-09-21T12:32:00;2.90;2.70;
12542;PMS3003;6337;49.556;25.594;2022-09-21T12:34:30;2.80;2.60;
12542;PMS3003;6337;49.556;25.594;2022-09-21T12:37:06;8.57;3.57;
12542;PMS3003;6337;49.556;25.594;2022-09-21T12:39:37;3.37;2.83;
12542;PMS3003;6337;49.556;25.594;2022-09-21T12:42:20;3.67;2.93;
12542;PMS3003;6337;49.556;25.594;2022-09-21T12:44:53;6.00;3.33;
12542;PMS3003;6337;49.556;25.594;2022-09-21T12:47:24;5.93;3.13;
12542;PMS3003;6337;49.556;25.594;2022-09-21T12:49:56;4.37;3.37;
12542;PMS3003;6337;49.556;25.594;2022-09-21T12:52:28;5.23;3.13;
12542;PMS3003;6337;49.556;25.594;2022-09-21T12:54:59;3.03;2.83;
12542;PMS3003;6337;49.556;25.594;2022-09-21T12:57:33;3.43;3.10;
12542;PMS3003;6337;49.556;25.594;2022-09-21T13:00:12;4.47;4.07;
12542;PMS3003;6337;49.556;25.594;2022-09-21T13:02:40;2.90;2.60;
12542;PMS3003;6337;49.556;25.594;2022-09-21T13:05:12;2.63;2.43;
12542;PMS3003;6337;49.556;25.594;2022-09-21T13:07:54;3.77;3.47;
12542;PMS3003;6337;49.556;25.594;2022-09-21T13:13:23;2.13;1.90;
12542;PMS3003;6337;49.556;25.594;2022-09-21T13:15:53;2.40;2.30;
12542;PMS3003;6337;49.556;25.594;2022-09-21T13:18:22;7.73;2.43;
12542;PMS3003;6337;49.556;25.594;2022-09-21T13:20:51;3.90;3.40;
12542;PMS3003;6337;49.556;25.594;2022-09-21T13:23:22;3.27;3.00;
12542;PMS3003;6337;49.556;25.594;2022-09-21T13:25:58;5.30;2.70;
12542;PMS3003;6337;49.556;25.594;2022-09-21T13:31:40;4.33;3.83;
12542;PMS3003;6337;49.556;25.594;2022-09-21T13:34:20;3.20;3.00;
12542;PMS3003;6337;49.556;25.594;2022-09-21T13:39:43;5.60;3.93;
12542;PMS3003;6337;49.556;25.594;2022-09-21T13:48:11;3.97;3.60;
12542;PMS3003;6337;49.556;25.594;2022-09-21T13:50:42;3.50;3.20;
12542;PMS3003;6337;49.556;25.594;2022-09-21T13:53:16;4.47;4.10;
12542;PMS3003;6337;49.556;25.594;2022-09-21T13:55:49;5.57;3.60;
12542;PMS3003;6337;49.556;25.594;2022-09-21T13:58:19;4.40;3.53;
12542;PMS3003;6337;49.556;25.594;2022-09-21T14:00:52;4.53;3.63;
12542;PMS3003;6337;49.556;25.594;2022-09-21T14:03:22;3.90;3.33;
12542;PMS3003;6337;49.556;25.594;2022-09-21T14:05:51;8.83;3.90;
12542;PMS3003;6337;49.556;25.594;2022-09-21T14:08:21;5.93;3.80;
12542;PMS3003;6337;49.556;25.594;2022-09-21T14:10:53;4.50;3.77;
12542;PMS3003;6337;49.556;25.594;2022-09-21T14:13:27;4.20;3.83;
12542;PMS3003;6337;49.556;25.594;2022-09-21T14:22:34;5.77;5.27;
12542;PMS3003;6337;49.556;25.594;2022-09-21T14:28:01;4.27;3.87;
12542;PMS3003;6337;49.556;25.594;2022-09-21T14:30:33;5.00;3.63;
12542;PMS3003;6337;49.556;25.594;2022-09-21T14:33:07;6.40;4.77;
12542;PMS3003;6337;49.556;25.594;2022-09-21T14:35:45;4.70;4.20;
12542;PMS3003;6337;49.556;25.594;2022-09-21T14:38:15;4.83;4.33;
12542;PMS3003;6337;49.556;25.594;2022-09-21T14:40:45;4.60;3.53;
12542;PMS3003;6337;49.556;25.594;2022-09-21T14:43:17;6.13;3.00;
12542;PMS3003;6337;49.556;25.594;2022-09-21T14:45:50;4.27;3.93;
12542;PMS3003;6337;49.556;25.594;2022-09-21T14:48:29;3.67;3.37;
12542;PMS3003;6337;49.556;25.594;2022-09-21T14:51:04;5.00;3.60;
12542;PMS3003;6337;49.556;25.594;2022-09-21T14:56:39;6.10;4.47;
12542;PMS3003;6337;49.556;25.594;2022-09-21T14:59:21;5.10;3.67;
12542;PMS3003;6337;49.556;25.594;2022-09-21T15:02:11;5.20;4.50;
12542;PMS3003;6337;49.556;25.594;2022-09-21T15:07:36;4.30;3.90;
12542;PMS3003;6337;49.556;25.594;2022-09-21T15:10:24;12.10;3.67;
12542;PMS3003;6337;49.556;25.594;2022-09-21T15:13:26;4.80;4.27;
12542;PMS3003;6337;49.556;25.594;2022-09-21T15:16:15;4.40;3.77;
12542;PMS3003;6337;49.556;25.594;2022-09-21T15:18:50;3.30;3.00;
12542;PMS3003;6337;49.556;25.594;2022-09-21T15:21:28;3.70;3.23;
12542;PMS3003;6337;49.556;25.594;2022-09-21T15:23:57;3.00;2.50;
12542;PMS3003;6337;49.556;25.594;2022-09-21T15:26:25;3.83;2.67;
12542;PMS3003;6337;49.556;25.594;2022-09-21T15:28:55;5.47;3.77;
12542;PMS3003;6337;49.556;25.594;2022-09-21T15:31:24;7.07;3.47;
12542;PMS3003;6337;49.556;25.594;2022-09-21T15:33:57;6.87;3.40;
12542;PMS3003;6337;49.556;25.594;2022-09-21T15:36:26;5.40;4.30;
12542;PMS3003;6337;49.556;25.594;2022-09-21T15:38:55;4.27;2.93;
12542;PMS3003;6337;49.556;25.594;2022-09-21T15:41:37;4.40;3.30;
12542;PMS3003;6337;49.556;25.594;2022-09-21T15:44:06;7.40;3.67;
12542;PMS3003;6337;49.556;25.594;2022-09-21T15:46:40;4.80;4.10;
12542;PMS3003;6337;49.556;25.594;2022-09-21T15:49:09;4.70;3.10;
12542;PMS3003;6337;49.556;25.594;2022-09-21T15:51:38;7.83;3.00;
12542;PMS3003;6337;49.556;25.594;2022-09-21T15:54:13;6.53;3.83;
12542;PMS3003;6337;49.556;25.594;2022-09-21T15:56:45;3.80;3.50;
12542;PMS3003;6337;49.556;25.594;2022-09-21T15:59:13;3.60;3.30;
12542;PMS3003;6337;49.556;25.594;2022-09-21T16:01:44;4.60;3.90;
12542;PMS3003;6337;49.556;25.594;2022-09-21T16:04:13;3.50;3.20;
12542;PMS3003;6337;49.556;25.594;2022-09-21T16:06:43;6.53;3.60;
12542;PMS3003;6337;49.556;25.594;2022-09-21T16:09:27;6.13;4.07;
12542;PMS3003;6337;49.556;25.594;2022-09-21T16:11:55;10.53;4.00;
12542;PMS3003;6337;49.556;25.594;2022-09-21T16:14:23;6.57;4.53;
12542;PMS3003;6337;49.556;25.594;2022-09-21T16:17:23;7.80;4.83;